sensor_id;sensor_type;location;lat;lon;timestamp;P1;durP1;ratioP1;P2;durP2;ratioP2
15104;SDS011;7653;48.994;9.212;2023-07-20T00:01:58;1.73;;;1.30;;
15104;SDS011;7653;48.994;9.212;2023-07-20T00:04:24;2.87;;;0.67;;
15104;SDS011;7653;48.994;9.212;2023-07-20T00:06:49;2.83;;;1.37;;
15104;SDS011;7653;48.994;9.212;2023-07-20T00:09:15;1.73;;;1.10;;
15104;SDS011;7653;48.994;9.212;2023-07-20T00:11:47;2.50;;;1.27;;
15104;SDS011;7653;48.994;9.212;2023-07-20T00:14:16;2.53;;;1.57;;
15104;SDS011;7653;48.994;9.212;2023-07-20T00:16:42;1.57;;;1.47;;
15104;SDS011;7653;48.994;9.212;2023-07-20T00:19:07;2.57;;;1.53;;
15104;SDS011;7653;48.994;9.212;2023-07-20T00:21:34;1.27;;;1.17;;
15104;SDS011;7653;48.994;9.212;2023-07-20T00:23:59;2.43;;;1.63;;
15104;SDS011;7653;48.994;9.212;2023-07-20T00:26:25;3.27;;;1.40;;
15104;SDS011;7653;48.994;9.212;2023-07-20T00:28:51;3.60;;;1.37;;
15104;SDS011;7653;48.994;9.212;2023-07-20T00:31:16;1.60;;;1.20;;
15104;SDS011;7653;48.994;9.212;2023-07-20T00:33:42;2.87;;;1.43;;
15104;SDS011;7653;48.994;9.212;2023-07-20T00:36:08;2.57;;;1.60;;
15104;SDS011;7653;48.994;9.212;2023-07-20T00:38:33;2.60;;;1.50;;
15104;SDS011;7653;48.994;9.212;2023-07-20T00:40:59;2.77;;;1.70;;
15104;SDS011;7653;48.994;9.212;2023-07-20T00:43:25;3.53;;;1.70;;
15104;SDS011;7653;48.994;9.212;2023-07-20T00:45:50;2.30;;;1.67;;
15104;SDS011;7653;48.994;9.212;2023-07-20T00:48:16;4.97;;;1.70;;
15104;SDS011;7653;48.994;9.212;2023-07-20T00:50:41;5.13;;;1.50;;
15104;SDS011;7653;48.994;9.212;2023-07-20T00:53:08;2.17;;;1.60;;
15104;SDS011;7653;48.994;9.212;2023-07-20T00:55:34;2.83;;;1.80;;
15104;SDS011;7653;48.994;9.212;2023-07-20T00:57:59;3.50;;;1.70;;
15104;SDS011;7653;48.994;9.212;2023-07-20T01:00:25;5.10;;;1.57;;
15104;SDS011;7653;48.994;9.212;2023-07-20T01:02:52;2.70;;;1.10;;
15104;SDS011;7653;48.994;9.212;2023-07-20T01:05:18;2.90;;;1.50;;
15104;SDS011;7653;48.994;9.212;2023-07-20T01:10:33;3.00;;;1.70;;
15104;SDS011;7653;48.994;9.212;2023-07-20T01:13:06;2.93;;;1.13;;
15104;SDS011;7653;48.994;9.212;2023-07-20T01:15:34;2.80;;;1.20;;
15104;SDS011;7653;48.994;9.212;2023-07-20T01:18:00;2.80;;;1.40;;
15104;SDS011;7653;48.994;9.212;2023-07-20T01:20:26;2.43;;;1.50;;
15104;SDS011;7653;48.994;9.212;2023-07-20T01:31:25;1.83;;;1.63;;
15104;SDS011;7653;48.994;9.212;2023-07-20T01:33:57;3.13;;;1.33;;
15104;SDS011;7653;48.994;9.212;2023-07-20T01:36:24;2.77;;;1.73;;
15104;SDS011;7653;48.994;9.212;2023-07-20T01:38:52;1.77;;;1.47;;
15104;SDS011;7653;48.994;9.212;2023-07-20T01:41:19;3.27;;;1.60;;
15104;SDS011;7653;48.994;9.212;2023-07-20T01:43:46;2.03;;;1.40;;
15104;SDS011;7653;48.994;9.212;2023-07-20T01:46:11;1.83;;;1.53;;
15104;SDS011;7653;48.994;9.212;2023-07-20T01:48:37;4.47;;;1.33;;
15104;SDS011;7653;48.994;9.212;2023-07-20T01:51:03;3.80;;;1.40;;
15104;SDS011;7653;48.994;9.212;2023-07-20T01:55:56;2.57;;;1.30;;
15104;SDS011;7653;48.994;9.212;2023-07-20T01:58:23;2.40;;;1.53;;
15104;SDS011;7653;48.994;9.212;2023-07-20T02:00:50;1.53;;;1.30;;
15104;SDS011;7653;48.994;9.212;2023-07-20T02:03:16;1.90;;;1.50;;
15104;SDS011;7653;48.994;9.212;2023-07-20T02:05:42;2.63;;;1.50;;
15104;SDS011;7653;48.994;9.212;2023-07-20T02:08:08;2.30;;;1.60;;
15104;SDS011;7653;48.994;9.212;2023-07-20T02:10:34;4.30;;;1.70;;
15104;SDS011;7653;48.994;9.212;2023-07-20T02:13:00;1.50;;;1.30;;
15104;SDS011;7653;48.994;9.212;2023-07-20T02:15:26;2.00;;;1.50;;
15104;SDS011;7653;48.994;9.212;2023-07-20T02:17:52;2.40;;;1.60;;
15104;SDS011;7653;48.994;9.212;2023-07-20T02:20:18;2.60;;;1.60;;
15104;SDS011;7653;48.994;9.212;2023-07-20T02:22:44;2.50;;;1.80;;
15104;SDS011;7653;48.994;9.212;2023-07-20T02:25:10;2.00;;;1.50;;
15104;SDS011;7653;48.994;9.212;2023-07-20T02:27:36;4.13;;;1.50;;
15104;SDS011;7653;48.994;9.212;2023-07-20T02:30:03;2.23;;;1.60;;
15104;SDS011;7653;48.994;9.212;2023-07-20T02:32:30;5.37;;;1.90;;
15104;SDS011;7653;48.994;9.212;2023-07-20T02:34:57;2.80;;;1.90;;
15104;SDS011;7653;48.994;9.212;2023-07-20T02:37:23;3.10;;;1.50;;
15104;SDS011;7653;48.994;9.212;2023-07-20T02:39:49;3.83;;;1.70;;
15104;SDS011;7653;48.994;9.212;2023-07-20T02:42:15;2.60;;;1.60;;
15104;SDS011;7653;48.994;9.212;2023-07-20T02:44:41;2.00;;;1.47;;
15104;SDS011;7653;48.994;9.212;2023-07-20T02:47:07;5.73;;;1.70;;
15104;SDS011;7653;48.994;9.212;2023-07-20T02:49:32;3.67;;;1.60;;
15104;SDS011;7653;48.994;9.212;2023-07-20T02:51:58;3.97;;;2.00;;
15104;SDS011;7653;48.994;9.212;2023-07-20T02:54:24;3.17;;;1.77;;
15104;SDS011;7653;48.994;9.212;2023-07-20T02:56:52;3.10;;;1.80;;
15104;SDS011;7653;48.994;9.212;2023-07-20T02:59:18;3.73;;;1.60;;
15104;SDS011;7653;48.994;9.212;2023-07-20T03:01:44;3.53;;;1.80;;
15104;SDS011;7653;48.994;9.212;2023-07-20T03:04:09;2.00;;;1.50;;
15104;SDS011;7653;48.994;9.212;2023-07-20T03:06:35;2.20;;;1.80;;
15104;SDS011;7653;48.994;9.212;2023-07-20T03:09:01;2.43;;;1.67;;
15104;SDS011;7653;48.994;9.212;2023-07-20T03:11:28;3.73;;;1.57;;
15104;SDS011;7653;48.994;9.212;2023-07-20T03:13:54;2.97;;;1.67;;
15104;SDS011;7653;48.994;9.212;2023-07-20T03:16:20;2.73;;;1.37;;
15104;SDS011;7653;48.994;9.212;2023-07-20T03:18:46;1.93;;;1.50;;
15104;SDS011;7653;48.994;9.212;2023-07-20T03:21:12;3.40;;;1.80;;
15104;SDS011;7653;48.994;9.212;2023-07-20T03:23:38;4.20;;;2.10;;
15104;SDS011;7653;48.994;9.212;2023-07-20T03:26:05;3.67;;;1.70;;
15104;SDS011;7653;48.994;9.212;2023-07-20T03:28:33;2.60;;;1.80;;
15104;SDS011;7653;48.994;9.212;2023-07-20T03:31:02;2.20;;;1.80;;
15104;SDS011;7653;48.994;9.212;2023-07-20T03:33:29;2.57;;;1.73;;
15104;SDS011;7653;48.994;9.212;2023-07-20T03:35:55;2.97;;;2.10;;
15104;SDS011;7653;48.994;9.212;2023-07-20T03:38:22;2.97;;;1.90;;
15104;SDS011;7653;48.994;9.212;2023-07-20T03:40:51;2.97;;;2.17;;
15104;SDS011;7653;48.994;9.212;2023-07-20T03:43:18;3.20;;;1.90;;
15104;SDS011;7653;48.994;9.212;2023-07-20T03:45:44;5.60;;;2.00;;
15104;SDS011;7653;48.994;9.212;2023-07-20T03:48:16;2.97;;;2.10;;
15104;SDS011;7653;48.994;9.212;2023-07-20T03:50:47;4.07;;;2.20;;
15104;SDS011;7653;48.994;9.212;2023-07-20T03:53:14;2.60;;;2.00;;
15104;SDS011;7653;48.994;9.212;2023-07-20T03:55:41;3.53;;;1.90;;
15104;SDS011;7653;48.994;9.212;2023-07-20T03:58:11;3.33;;;2.10;;
15104;SDS011;7653;48.994;9.212;2023-07-20T04:00:37;2.53;;;1.90;;
15104;SDS011;7653;48.994;9.212;2023-07-20T04:03:02;2.50;;;1.70;;
15104;SDS011;7653;48.994;9.212;2023-07-20T04:05:28;3.93;;;2.20;;
15104;SDS011;7653;48.994;9.212;2023-07-20T04:07:54;2.50;;;1.83;;
15104;SDS011;7653;48.994;9.212;2023-07-20T04:10:20;4.90;;;2.10;;
15104;SDS011;7653;48.994;9.212;2023-07-20T04:12:46;6.30;;;1.80;;
15104;SDS011;7653;48.994;9.212;2023-07-20T04:15:14;2.77;;;1.80;;
15104;SDS011;7653;48.994;9.212;2023-07-20T04:17:40;3.50;;;1.80;;
15104;SDS011;7653;48.994;9.212;2023-07-20T04:20:06;2.97;;;1.90;;
15104;SDS011;7653;48.994;9.212;2023-07-20T04:22:33;3.10;;;1.87;;
15104;SDS011;7653;48.994;9.212;2023-07-20T04:24:59;2.83;;;2.00;;
15104;SDS011;7653;48.994;9.212;2023-07-20T04:27:25;5.50;;;2.30;;
15104;SDS011;7653;48.994;9.212;2023-07-20T04:29:51;4.67;;;1.97;;
15104;SDS011;7653;48.994;9.212;2023-07-20T04:32:17;6.10;;;2.30;;
15104;SDS011;7653;48.994;9.212;2023-07-20T04:34:42;4.30;;;2.10;;
15104;SDS011;7653;48.994;9.212;2023-07-20T04:37:08;3.20;;;2.00;;
15104;SDS011;7653;48.994;9.212;2023-07-20T04:39:34;6.10;;;2.00;;
15104;SDS011;7653;48.994;9.212;2023-07-20T04:41:59;4.23;;;1.87;;
15104;SDS011;7653;48.994;9.212;2023-07-20T04:44:25;3.27;;;1.90;;
15104;SDS011;7653;48.994;9.212;2023-07-20T04:46:51;3.40;;;2.00;;
15104;SDS011;7653;48.994;9.212;2023-07-20T04:49:16;4.73;;;2.03;;
15104;SDS011;7653;48.994;9.212;2023-07-20T04:51:42;3.37;;;2.00;;
15104;SDS011;7653;48.994;9.212;2023-07-20T04:54:08;3.60;;;1.80;;
15104;SDS011;7653;48.994;9.212;2023-07-20T04:56:33;3.23;;;1.87;;
15104;SDS011;7653;48.994;9.212;2023-07-20T04:58:59;4.97;;;1.80;;
15104;SDS011;7653;48.994;9.212;2023-07-20T05:01:24;2.03;;;1.63;;
15104;SDS011;7653;48.994;9.212;2023-07-20T05:03:51;3.23;;;1.67;;
15104;SDS011;7653;48.994;9.212;2023-07-20T05:06:17;7.70;;;1.90;;
15104;SDS011;7653;48.994;9.212;2023-07-20T05:08:44;2.87;;;1.73;;
15104;SDS011;7653;48.994;9.212;2023-07-20T05:11:10;3.83;;;2.30;;
15104;SDS011;7653;48.994;9.212;2023-07-20T05:13:36;2.77;;;1.50;;
15104;SDS011;7653;48.994;9.212;2023-07-20T05:16:02;3.47;;;2.07;;
15104;SDS011;7653;48.994;9.212;2023-07-20T05:18:28;3.93;;;1.80;;
15104;SDS011;7653;48.994;9.212;2023-07-20T05:20:54;2.00;;;1.77;;
15104;SDS011;7653;48.994;9.212;2023-07-20T05:23:20;3.40;;;1.80;;
15104;SDS011;7653;48.994;9.212;2023-07-20T05:25:46;6.33;;;2.10;;
15104;SDS011;7653;48.994;9.212;2023-07-20T05:28:18;4.60;;;2.20;;
15104;SDS011;7653;48.994;9.212;2023-07-20T05:30:44;4.63;;;1.90;;
15104;SDS011;7653;48.994;9.212;2023-07-20T05:33:09;3.90;;;1.70;;
15104;SDS011;7653;48.994;9.212;2023-07-20T05:35:36;4.17;;;1.80;;
15104;SDS011;7653;48.994;9.212;2023-07-20T05:38:02;1.73;;;1.50;;
15104;SDS011;7653;48.994;9.212;2023-07-20T05:40:29;3.57;;;1.70;;
15104;SDS011;7653;48.994;9.212;2023-07-20T05:42:54;7.93;;;2.00;;
15104;SDS011;7653;48.994;9.212;2023-07-20T05:45:21;2.67;;;1.60;;
15104;SDS011;7653;48.994;9.212;2023-07-20T05:47:47;3.87;;;2.00;;
15104;SDS011;7653;48.994;9.212;2023-07-20T05:50:13;4.07;;;2.10;;
15104;SDS011;7653;48.994;9.212;2023-07-20T05:52:39;4.43;;;2.00;;
15104;SDS011;7653;48.994;9.212;2023-07-20T05:55:05;5.13;;;1.70;;
15104;SDS011;7653;48.994;9.212;2023-07-20T05:57:34;3.80;;;1.87;;
15104;SDS011;7653;48.994;9.212;2023-07-20T06:00:00;3.20;;;1.87;;
15104;SDS011;7653;48.994;9.212;2023-07-20T06:02:26;3.60;;;1.90;;
15104;SDS011;7653;48.994;9.212;2023-07-20T06:04:51;3.60;;;1.90;;
15104;SDS011;7653;48.994;9.212;2023-07-20T06:07:17;2.50;;;1.83;;
15104;SDS011;7653;48.994;9.212;2023-07-20T06:09:43;2.87;;;1.70;;
15104;SDS011;7653;48.994;9.212;2023-07-20T06:12:08;2.77;;;1.30;;
15104;SDS011;7653;48.994;9.212;2023-07-20T06:14:34;2.33;;;1.70;;
15104;SDS011;7653;48.994;9.212;2023-07-20T06:17:00;2.67;;;1.50;;
15104;SDS011;7653;48.994;9.212;2023-07-20T06:19:26;3.43;;;1.73;;
15104;SDS011;7653;48.994;9.212;2023-07-20T06:21:51;2.60;;;1.60;;
15104;SDS011;7653;48.994;9.212;2023-07-20T06:24:17;3.67;;;2.00;;
15104;SDS011;7653;48.994;9.212;2023-07-20T06:26:43;4.67;;;2.00;;
15104;SDS011;7653;48.994;9.212;2023-07-20T06:29:09;3.37;;;1.70;;
15104;SDS011;7653;48.994;9.212;2023-07-20T06:31:35;2.17;;;1.97;;
15104;SDS011;7653;48.994;9.212;2023-07-20T06:34:01;5.17;;;1.73;;
15104;SDS011;7653;48.994;9.212;2023-07-20T06:36:27;2.93;;;1.60;;
15104;SDS011;7653;48.994;9.212;2023-07-20T06:38:53;3.27;;;1.70;;
15104;SDS011;7653;48.994;9.212;2023-07-20T06:41:19;3.77;;;1.70;;
15104;SDS011;7653;48.994;9.212;2023-07-20T06:43:45;3.33;;;1.67;;
15104;SDS011;7653;48.994;9.212;2023-07-20T06:46:10;2.87;;;1.70;;
15104;SDS011;7653;48.994;9.212;2023-07-20T06:48:36;4.70;;;1.73;;
15104;SDS011;7653;48.994;9.212;2023-07-20T06:51:02;2.73;;;1.73;;
15104;SDS011;7653;48.994;9.212;2023-07-20T06:53:28;6.43;;;1.87;;
15104;SDS011;7653;48.994;9.212;2023-07-20T06:55:54;5.07;;;1.77;;
15104;SDS011;7653;48.994;9.212;2023-07-20T06:58:22;3.80;;;1.77;;
15104;SDS011;7653;48.994;9.212;2023-07-20T07:00:48;2.10;;;1.63;;
15104;SDS011;7653;48.994;9.212;2023-07-20T07:03:14;2.37;;;1.50;;
15104;SDS011;7653;48.994;9.212;2023-07-20T07:05:40;3.17;;;1.57;;
15104;SDS011;7653;48.994;9.212;2023-07-20T07:08:05;5.33;;;1.90;;
15104;SDS011;7653;48.994;9.212;2023-07-20T07:10:31;4.13;;;1.70;;
15104;SDS011;7653;48.994;9.212;2023-07-20T07:12:58;2.17;;;1.53;;
15104;SDS011;7653;48.994;9.212;2023-07-20T07:15:23;2.40;;;1.83;;
15104;SDS011;7653;48.994;9.212;2023-07-20T07:17:49;3.17;;;1.80;;
15104;SDS011;7653;48.994;9.212;2023-07-20T07:20:15;3.80;;;1.83;;
15104;SDS011;7653;48.994;9.212;2023-07-20T07:22:41;4.90;;;1.60;;
15104;SDS011;7653;48.994;9.212;2023-07-20T07:25:09;5.20;;;1.60;;
15104;SDS011;7653;48.994;9.212;2023-07-20T07:27:35;3.73;;;2.07;;
15104;SDS011;7653;48.994;9.212;2023-07-20T07:30:01;3.67;;;1.80;;
15104;SDS011;7653;48.994;9.212;2023-07-20T07:32:27;5.53;;;2.03;;
15104;SDS011;7653;48.994;9.212;2023-07-20T07:34:53;3.73;;;1.90;;
15104;SDS011;7653;48.994;9.212;2023-07-20T07:37:19;4.00;;;2.10;;
15104;SDS011;7653;48.994;9.212;2023-07-20T07:39:45;4.83;;;1.70;;
15104;SDS011;7653;48.994;9.212;2023-07-20T07:42:11;3.10;;;1.83;;
15104;SDS011;7653;48.994;9.212;2023-07-20T07:44:40;2.83;;;1.57;;
15104;SDS011;7653;48.994;9.212;2023-07-20T07:47:06;3.17;;;2.00;;
15104;SDS011;7653;48.994;9.212;2023-07-20T07:49:32;5.67;;;1.83;;
15104;SDS011;7653;48.994;9.212;2023-07-20T07:51:58;2.80;;;1.70;;
15104;SDS011;7653;48.994;9.212;2023-07-20T07:54:23;4.47;;;1.83;;
15104;SDS011;7653;48.994;9.212;2023-07-20T07:56:49;3.97;;;1.80;;
15104;SDS011;7653;48.994;9.212;2023-07-20T07:59:16;3.97;;;1.97;;
15104;SDS011;7653;48.994;9.212;2023-07-20T08:01:42;3.53;;;1.57;;
15104;SDS011;7653;48.994;9.212;2023-07-20T08:04:07;2.60;;;1.80;;
15104;SDS011;7653;48.994;9.212;2023-07-20T08:06:33;3.47;;;1.50;;
15104;SDS011;7653;48.994;9.212;2023-07-20T08:08:59;4.30;;;1.97;;
15104;SDS011;7653;48.994;9.212;2023-07-20T08:11:24;3.87;;;1.93;;
15104;SDS011;7653;48.994;9.212;2023-07-20T08:13:50;2.77;;;1.63;;
15104;SDS011;7653;48.994;9.212;2023-07-20T08:16:16;4.53;;;1.93;;
15104;SDS011;7653;48.994;9.212;2023-07-20T08:18:41;2.43;;;1.60;;
15104;SDS011;7653;48.994;9.212;2023-07-20T08:21:08;3.60;;;1.70;;
15104;SDS011;7653;48.994;9.212;2023-07-20T08:23:34;2.60;;;2.00;;
15104;SDS011;7653;48.994;9.212;2023-07-20T08:25:59;4.33;;;1.70;;
15104;SDS011;7653;48.994;9.212;2023-07-20T08:28:26;4.03;;;2.00;;
15104;SDS011;7653;48.994;9.212;2023-07-20T08:30:52;3.77;;;2.07;;
15104;SDS011;7653;48.994;9.212;2023-07-20T08:33:18;5.20;;;1.93;;
15104;SDS011;7653;48.994;9.212;2023-07-20T08:35:44;1.70;;;0.83;;
15104;SDS011;7653;48.994;9.212;2023-07-20T08:38:10;3.57;;;1.70;;
15104;SDS011;7653;48.994;9.212;2023-07-20T08:40:40;3.47;;;1.60;;
15104;SDS011;7653;48.994;9.212;2023-07-20T08:43:07;0.93;;;0.50;;
15104;SDS011;7653;48.994;9.212;2023-07-20T08:45:35;2.53;;;1.30;;
15104;SDS011;7653;48.994;9.212;2023-07-20T08:48:04;2.10;;;1.30;;
15104;SDS011;7653;48.994;9.212;2023-07-20T08:50:31;2.47;;;1.40;;
15104;SDS011;7653;48.994;9.212;2023-07-20T08:52:57;4.83;;;1.87;;
15104;SDS011;7653;48.994;9.212;2023-07-20T08:55:28;1.90;;;1.03;;
15104;SDS011;7653;48.994;9.212;2023-07-20T08:57:54;4.00;;;1.43;;
15104;SDS011;7653;48.994;9.212;2023-07-20T09:00:21;2.47;;;1.50;;
15104;SDS011;7653;48.994;9.212;2023-07-20T09:02:51;2.50;;;1.43;;
15104;SDS011;7653;48.994;9.212;2023-07-20T09:05:19;1.80;;;1.30;;
15104;SDS011;7653;48.994;9.212;2023-07-20T09:07:45;1.50;;;1.10;;
15104;SDS011;7653;48.994;9.212;2023-07-20T09:10:12;2.63;;;1.37;;
15104;SDS011;7653;48.994;9.212;2023-07-20T09:12:41;1.20;;;1.00;;
15104;SDS011;7653;48.994;9.212;2023-07-20T09:15:09;2.77;;;1.20;;
15104;SDS011;7653;48.994;9.212;2023-07-20T09:17:35;4.30;;;1.57;;
15104;SDS011;7653;48.994;9.212;2023-07-20T09:20:06;2.17;;;1.30;;
15104;SDS011;7653;48.994;9.212;2023-07-20T09:22:35;5.17;;;1.30;;
15104;SDS011;7653;48.994;9.212;2023-07-20T09:27:41;3.00;;;1.50;;
15104;SDS011;7653;48.994;9.212;2023-07-20T09:30:11;3.03;;;1.30;;
15104;SDS011;7653;48.994;9.212;2023-07-20T09:32:48;2.07;;;1.30;;
15104;SDS011;7653;48.994;9.212;2023-07-20T09:35:19;3.00;;;1.57;;
15104;SDS011;7653;48.994;9.212;2023-07-20T09:37:50;2.07;;;1.30;;
15104;SDS011;7653;48.994;9.212;2023-07-20T09:40:19;5.77;;;1.53;;
15104;SDS011;7653;48.994;9.212;2023-07-20T09:42:45;1.53;;;1.20;;
15104;SDS011;7653;48.994;9.212;2023-07-20T09:45:11;2.97;;;1.20;;
15104;SDS011;7653;48.994;9.212;2023-07-20T09:47:37;2.00;;;1.50;;
15104;SDS011;7653;48.994;9.212;2023-07-20T09:50:04;1.57;;;1.33;;
15104;SDS011;7653;48.994;9.212;2023-07-20T09:52:35;2.30;;;1.30;;
15104;SDS011;7653;48.994;9.212;2023-07-20T09:55:06;2.00;;;1.27;;
15104;SDS011;7653;48.994;9.212;2023-07-20T09:57:33;1.63;;;1.20;;
15104;SDS011;7653;48.994;9.212;2023-07-20T10:00:00;2.30;;;1.47;;
15104;SDS011;7653;48.994;9.212;2023-07-20T10:02:29;2.20;;;1.50;;
15104;SDS011;7653;48.994;9.212;2023-07-20T10:04:58;2.43;;;1.30;;
15104;SDS011;7653;48.994;9.212;2023-07-20T10:07:28;1.80;;;1.20;;
15104;SDS011;7653;48.994;9.212;2023-07-20T10:09:56;4.47;;;1.30;;
15104;SDS011;7653;48.994;9.212;2023-07-20T10:12:26;2.23;;;1.40;;
15104;SDS011;7653;48.994;9.212;2023-07-20T10:14:57;2.17;;;1.60;;
15104;SDS011;7653;48.994;9.212;2023-07-20T10:17:35;3.53;;;1.40;;
15104;SDS011;7653;48.994;9.212;2023-07-20T10:20:05;5.40;;;1.60;;
15104;SDS011;7653;48.994;9.212;2023-07-20T10:22:34;3.30;;;1.20;;
15104;SDS011;7653;48.994;9.212;2023-07-20T10:25:01;2.20;;;1.10;;
15104;SDS011;7653;48.994;9.212;2023-07-20T10:27:27;1.50;;;1.20;;
15104;SDS011;7653;48.994;9.212;2023-07-20T10:29:53;2.67;;;1.27;;
15104;SDS011;7653;48.994;9.212;2023-07-20T10:32:20;2.90;;;1.20;;
15104;SDS011;7653;48.994;9.212;2023-07-20T10:34:50;3.30;;;0.97;;
15104;SDS011;7653;48.994;9.212;2023-07-20T10:43:18;1.43;;;0.97;;
15104;SDS011;7653;48.994;9.212;2023-07-20T10:45:51;1.93;;;0.90;;
15104;SDS011;7653;48.994;9.212;2023-07-20T10:53:35;1.23;;;1.10;;
15104;SDS011;7653;48.994;9.212;2023-07-20T10:56:13;2.13;;;1.20;;
15104;SDS011;7653;48.994;9.212;2023-07-20T10:58:44;3.33;;;1.57;;
15104;SDS011;7653;48.994;9.212;2023-07-20T11:01:12;1.87;;;1.40;;
15104;SDS011;7653;48.994;9.212;2023-07-20T11:03:40;1.63;;;1.40;;
15104;SDS011;7653;48.994;9.212;2023-07-20T11:06:39;1.33;;;0.97;;
15104;SDS011;7653;48.994;9.212;2023-07-20T11:11:30;1.47;;;1.30;;
15104;SDS011;7653;48.994;9.212;2023-07-20T11:14:07;1.60;;;1.17;;
15104;SDS011;7653;48.994;9.212;2023-07-20T11:19:22;2.93;;;1.30;;
15104;SDS011;7653;48.994;9.212;2023-07-20T11:21:53;2.83;;;1.40;;
15104;SDS011;7653;48.994;9.212;2023-07-20T11:24:20;1.87;;;1.40;;
15104;SDS011;7653;48.994;9.212;2023-07-20T11:26:46;1.93;;;1.57;;
15104;SDS011;7653;48.994;9.212;2023-07-20T11:29:14;1.97;;;1.10;;
15104;SDS011;7653;48.994;9.212;2023-07-20T11:31:41;3.13;;;1.53;;
15104;SDS011;7653;48.994;9.212;2023-07-20T11:34:10;2.03;;;1.33;;
15104;SDS011;7653;48.994;9.212;2023-07-20T11:36:43;2.00;;;1.50;;
15104;SDS011;7653;48.994;9.212;2023-07-20T11:39:11;1.80;;;1.60;;
15104;SDS011;7653;48.994;9.212;2023-07-20T11:41:38;2.73;;;1.63;;
15104;SDS011;7653;48.994;9.212;2023-07-20T11:44:05;2.37;;;1.30;;
15104;SDS011;7653;48.994;9.212;2023-07-20T11:46:37;2.13;;;1.40;;
15104;SDS011;7653;48.994;9.212;2023-07-20T11:49:04;2.17;;;1.60;;
15104;SDS011;7653;48.994;9.212;2023-07-20T11:51:31;2.13;;;1.43;;
15104;SDS011;7653;48.994;9.212;2023-07-20T11:53:57;1.60;;;1.33;;
15104;SDS011;7653;48.994;9.212;2023-07-20T11:56:24;4.17;;;1.30;;
15104;SDS011;7653;48.994;9.212;2023-07-20T11:58:53;4.07;;;1.40;;
15104;SDS011;7653;48.994;9.212;2023-07-20T12:01:20;3.13;;;1.47;;
15104;SDS011;7653;48.994;9.212;2023-07-20T12:03:48;3.10;;;1.43;;
15104;SDS011;7653;48.994;9.212;2023-07-20T12:06:14;2.23;;;1.30;;
15104;SDS011;7653;48.994;9.212;2023-07-20T12:08:44;2.17;;;1.30;;
15104;SDS011;7653;48.994;9.212;2023-07-20T12:11:10;2.00;;;1.50;;
15104;SDS011;7653;48.994;9.212;2023-07-20T12:13:40;3.00;;;1.47;;
15104;SDS011;7653;48.994;9.212;2023-07-20T12:16:17;3.13;;;1.20;;
15104;SDS011;7653;48.994;9.212;2023-07-20T12:18:43;2.15;;;1.60;;
15104;SDS011;7653;48.994;9.212;2023-07-20T12:21:09;2.57;;;1.43;;
15104;SDS011;7653;48.994;9.212;2023-07-20T12:23:39;2.47;;;1.47;;
15104;SDS011;7653;48.994;9.212;2023-07-20T12:26:09;2.50;;;1.30;;
15104;SDS011;7653;48.994;9.212;2023-07-20T12:28:41;1.63;;;1.20;;
15104;SDS011;7653;48.994;9.212;2023-07-20T12:31:10;1.75;;;1.40;;
15104;SDS011;7653;48.994;9.212;2023-07-20T12:33:37;1.98;;;1.20;;
15104;SDS011;7653;48.994;9.212;2023-07-20T12:36:03;3.42;;;1.40;;
15104;SDS011;7653;48.994;9.212;2023-07-20T12:38:29;1.58;;;1.40;;
15104;SDS011;7653;48.994;9.212;2023-07-20T12:40:56;3.40;;;1.60;;
15104;SDS011;7653;48.994;9.212;2023-07-20T12:43:22;1.90;;;1.30;;
15104;SDS011;7653;48.994;9.212;2023-07-20T12:45:47;4.22;;;2.17;;
15104;SDS011;7653;48.994;9.212;2023-07-20T12:48:13;1.67;;;1.40;;
15104;SDS011;7653;48.994;9.212;2023-07-20T12:50:39;1.80;;;1.20;;
15104;SDS011;7653;48.994;9.212;2023-07-20T12:53:08;1.98;;;1.17;;
15104;SDS011;7653;48.994;9.212;2023-07-20T12:55:33;1.65;;;1.48;;
15104;SDS011;7653;48.994;9.212;2023-07-20T12:57:59;1.67;;;1.38;;
15104;SDS011;7653;48.994;9.212;2023-07-20T13:00:25;2.63;;;1.60;;
15104;SDS011;7653;48.994;9.212;2023-07-20T13:02:51;2.13;;;1.17;;
15104;SDS011;7653;48.994;9.212;2023-07-20T13:05:17;1.67;;;1.27;;
15104;SDS011;7653;48.994;9.212;2023-07-20T13:07:42;1.60;;;1.20;;
15104;SDS011;7653;48.994;9.212;2023-07-20T13:10:08;2.97;;;1.45;;
15104;SDS011;7653;48.994;9.212;2023-07-20T13:12:35;2.00;;;1.15;;
15104;SDS011;7653;48.994;9.212;2023-07-20T13:15:02;1.77;;;1.02;;
15104;SDS011;7653;48.994;9.212;2023-07-20T13:17:32;4.53;;;1.40;;
15104;SDS011;7653;48.994;9.212;2023-07-20T13:20:02;3.35;;;1.70;;
15104;SDS011;7653;48.994;9.212;2023-07-20T13:22:30;3.90;;;1.35;;
15104;SDS011;7653;48.994;9.212;2023-07-20T13:24:55;1.75;;;1.27;;
15104;SDS011;7653;48.994;9.212;2023-07-20T13:27:21;1.88;;;1.30;;
15104;SDS011;7653;48.994;9.212;2023-07-20T13:29:47;2.22;;;1.15;;
15104;SDS011;7653;48.994;9.212;2023-07-20T13:32:13;2.72;;;1.40;;
15104;SDS011;7653;48.994;9.212;2023-07-20T13:34:46;1.88;;;1.40;;
15104;SDS011;7653;48.994;9.212;2023-07-20T13:37:12;1.20;;;1.10;;
15104;SDS011;7653;48.994;9.212;2023-07-20T13:39:38;3.88;;;1.40;;
15104;SDS011;7653;48.994;9.212;2023-07-20T13:42:04;4.00;;;1.77;;
15104;SDS011;7653;48.994;9.212;2023-07-20T13:44:33;2.63;;;1.25;;
15104;SDS011;7653;48.994;9.212;2023-07-20T13:46:59;1.35;;;1.20;;
15104;SDS011;7653;48.994;9.212;2023-07-20T13:49:26;1.20;;;1.10;;
15104;SDS011;7653;48.994;9.212;2023-07-20T13:51:52;2.15;;;1.38;;
15104;SDS011;7653;48.994;9.212;2023-07-20T13:54:17;1.27;;;1.10;;
15104;SDS011;7653;48.994;9.212;2023-07-20T13:56:43;1.83;;;1.33;;
15104;SDS011;7653;48.994;9.212;2023-07-20T13:59:09;3.17;;;1.30;;
15104;SDS011;7653;48.994;9.212;2023-07-20T14:01:34;1.70;;;1.20;;
15104;SDS011;7653;48.994;9.212;2023-07-20T14:04:00;1.42;;;1.08;;
15104;SDS011;7653;48.994;9.212;2023-07-20T14:06:30;2.20;;;1.60;;
15104;SDS011;7653;48.994;9.212;2023-07-20T14:08:57;2.00;;;1.20;;
15104;SDS011;7653;48.994;9.212;2023-07-20T14:11:23;1.70;;;1.27;;
15104;SDS011;7653;48.994;9.212;2023-07-20T14:13:52;2.50;;;1.05;;
15104;SDS011;7653;48.994;9.212;2023-07-20T14:16:19;2.15;;;1.25;;
15104;SDS011;7653;48.994;9.212;2023-07-20T14:18:47;2.08;;;1.30;;
15104;SDS011;7653;48.994;9.212;2023-07-20T14:21:14;2.33;;;1.20;;
15104;SDS011;7653;48.994;9.212;2023-07-20T14:23:47;1.23;;;1.13;;
15104;SDS011;7653;48.994;9.212;2023-07-20T14:26:14;1.65;;;1.35;;
15104;SDS011;7653;48.994;9.212;2023-07-20T14:28:41;2.15;;;1.02;;
15104;SDS011;7653;48.994;9.212;2023-07-20T14:31:07;1.50;;;1.20;;
15104;SDS011;7653;48.994;9.212;2023-07-20T14:33:33;2.17;;;1.13;;
15104;SDS011;7653;48.994;9.212;2023-07-20T14:35:59;2.13;;;1.40;;
15104;SDS011;7653;48.994;9.212;2023-07-20T14:38:26;4.10;;;1.10;;
15104;SDS011;7653;48.994;9.212;2023-07-20T14:40:59;1.42;;;1.33;;
15104;SDS011;7653;48.994;9.212;2023-07-20T14:43:24;1.88;;;1.20;;
15104;SDS011;7653;48.994;9.212;2023-07-20T14:45:50;1.70;;;1.17;;
15104;SDS011;7653;48.994;9.212;2023-07-20T14:48:16;2.10;;;1.10;;
15104;SDS011;7653;48.994;9.212;2023-07-20T14:50:41;1.73;;;1.23;;
15104;SDS011;7653;48.994;9.212;2023-07-20T14:53:10;2.47;;;1.23;;
15104;SDS011;7653;48.994;9.212;2023-07-20T14:55:37;1.20;;;1.10;;
15104;SDS011;7653;48.994;9.212;2023-07-20T14:58:02;1.70;;;1.10;;
15104;SDS011;7653;48.994;9.212;2023-07-20T15:00:28;1.55;;;1.30;;
15104;SDS011;7653;48.994;9.212;2023-07-20T15:02:55;3.00;;;1.10;;
15104;SDS011;7653;48.994;9.212;2023-07-20T15:05:21;3.80;;;1.27;;
15104;SDS011;7653;48.994;9.212;2023-07-20T15:07:48;2.05;;;1.10;;
15104;SDS011;7653;48.994;9.212;2023-07-20T15:10:15;1.10;;;0.93;;
15104;SDS011;7653;48.994;9.212;2023-07-20T15:12:41;2.63;;;1.13;;
15104;SDS011;7653;48.994;9.212;2023-07-20T15:15:11;1.88;;;1.25;;
15104;SDS011;7653;48.994;9.212;2023-07-20T15:17:39;1.25;;;1.15;;
15104;SDS011;7653;48.994;9.212;2023-07-20T15:20:06;1.30;;;1.00;;
15104;SDS011;7653;48.994;9.212;2023-07-20T15:22:33;2.47;;;1.50;;
15104;SDS011;7653;48.994;9.212;2023-07-20T15:24:59;1.55;;;1.15;;
15104;SDS011;7653;48.994;9.212;2023-07-20T15:27:25;1.92;;;1.33;;
15104;SDS011;7653;48.994;9.212;2023-07-20T15:29:51;1.48;;;1.20;;
15104;SDS011;7653;48.994;9.212;2023-07-20T15:32:20;1.48;;;1.17;;